Time;durP1;ratioP1;P1;durP2;ratioP2;P2;SDS_P1;SDS_P2;PMS_P1;PMS_P2;Temp;Humidity;BMP_temperature;BMP_pressure;BME280_temperature;BME280_humidity;BME280_pressure;Samples;Min_cycle;Max_cycle;Signal;HPM_P1;HPM_P2
2023/10/25 00:00:47;;;;;;;;;;;9.50;99.90;;;;;;2616551;47;19951;-75
2023/10/25 00:03:17;;;;;;;;;;;9.50;99.90;;;;;;2616098;47;19947;-74
2023/10/25 00:05:47;;;;;;;;;;;9.50;99.90;;;;;;2615491;54;20394;-74
2023/10/25 00:08:17;;;;;;;;;;;8.60;99.90;;;;;;2617713;47;19935;-74
2023/10/25 00:10:47;;;;;;;;;;;9.60;99.90;;;;;;2616941;47;19954;-74
2023/10/25 00:13:16;;;;;;;;;;;9.60;99.90;;;;;;2616952;47;19946;-74
2023/10/25 00:15:49;;;;;;;;;;;9.60;99.90;;;;;;2616823;47;19946;-73
2023/10/25 00:18:18;;;;;;;;;;;9.60;99.90;;;;;;2616106;54;19958;-74
2023/10/25 00:20:48;;;;;;;;;;;9.60;99.90;;;;;;2617944;47;20045;-74
2023/10/25 00:23:18;;;;;;;;;;;9.60;99.90;;;;;;2617138;54;20467;-74
2023/10/25 00:25:47;;;;;;;;;;;9.70;99.90;;;;;;2617566;39;20384;-73
2023/10/25 00:28:17;;;;;;;;;;;9.80;99.90;;;;;;2616714;47;19934;-75
2023/10/25 00:30:49;;;;;;;;;;;9.70;99.90;;;;;;2616340;47;19981;-74
2023/10/25 00:33:19;;;;;;;;;;;9.70;99.90;;;;;;2616716;47;19950;-74
2023/10/25 00:35:49;;;;;;;;;;;9.70;99.90;;;;;;2617267;54;19946;-73
2023/10/25 00:38:18;;;;;;;;;;;9.80;99.90;;;;;;2617329;54;19954;-76
2023/10/25 00:40:48;;;;;;;;;;;9.70;99.90;;;;;;2617251;47;19939;-72
2023/10/25 00:43:19;;;;;;;;;;;9.80;99.90;;;;;;2617127;47;19974;-74
2023/10/25 00:46:03;;;;;;;;;;;9.80;99.90;;;;;;2614487;47;19946;-74
2023/10/25 00:48:33;;;;;;;;;;;9.80;99.90;;;;;;2616066;47;19954;-74
2023/10/25 00:51:03;;;;;;;;;;;9.80;99.90;;;;;;2616025;47;20477;-73
2023/10/25 00:53:34;;;;;;;;;;;9.90;99.90;;;;;;2617405;39;20480;-74
2023/10/25 00:56:04;;;;;;;;;;;9.90;99.90;;;;;;2615340;46;19947;-76
2023/10/25 00:58:35;;;;;;;;;;;9.90;99.90;;;;;;2615949;47;19953;-73
2023/10/25 01:01:07;;;;;;;;;;;9.90;99.90;;;;;;2616730;47;20253;-74
2023/10/25 01:03:37;;;;;;;;;;;10.00;99.90;;;;;;2615368;47;20464;-74
2023/10/25 01:06:04;;;;;;;;;;;9.90;99.90;;;;;;2616215;54;19950;-74
2023/10/25 01:08:34;;;;;;;;;;;9.90;99.90;;;;;;2616148;47;20713;-74
2023/10/25 01:11:04;;;;;;;;;;;10.00;99.90;;;;;;2617488;48;19935;-74
2023/10/25 01:13:31;;;;;;;;;;;10.00;99.90;;;;;;2617964;47;20480;-73
2023/10/25 01:16:01;;;;;;;;;;;10.00;99.90;;;;;;2618141;47;19946;-73
2023/10/25 01:18:33;;;;;;;;;;;10.00;99.90;;;;;;2618512;31;20477;-74
2023/10/25 01:21:03;;;;;;;;;;;10.00;99.90;;;;;;2616961;46;19960;-74
2023/10/25 01:23:35;;;;;;;;;;;10.00;99.90;;;;;;2615765;47;19977;-73
2023/10/25 01:26:05;;;;;;;;;;;10.00;99.90;;;;;;2617081;47;20433;-75
2023/10/25 01:28:35;;;;;;;;;;;10.00;99.90;;;;;;2616562;47;19973;-74
2023/10/25 01:31:04;;;;;;;;;;;10.00;99.90;;;;;;2623898;54;19953;-74
2023/10/25 01:33:34;;;;;;;;;;;10.00;99.90;;;;;;2624230;47;19954;-73
2023/10/25 01:36:04;;;;;;;;;;;10.00;99.90;;;;;;2623925;47;20003;-74
2023/10/25 01:38:36;;;;;;;;;;;10.10;99.90;;;;;;2624461;47;19964;-74
2023/10/25 01:41:06;;;;;;;;;;;10.10;99.90;;;;;;2623449;47;19938;-74
2023/10/25 01:43:35;;;;;;;;;;;10.10;99.90;;;;;;2622473;47;19947;-74
2023/10/25 01:46:05;;;;;;;;;;;10.20;99.90;;;;;;2622842;54;20002;-74
2023/10/25 01:48:35;;;;;;;;;;;10.20;99.90;;;;;;2620740;47;20016;-74
2023/10/25 01:51:05;;;;;;;;;;;10.20;99.90;;;;;;2617216;47;19935;-74
2023/10/25 01:53:38;;;;;;;;;;;10.20;99.90;;;;;;2617155;47;19945;-73
2023/10/25 01:56:07;;;;;;;;;;;10.20;99.90;;;;;;2617005;31;20477;-73
2023/10/25 01:58:37;;;;;;;;;;;10.20;99.90;;;;;;2616435;54;20429;-74
2023/10/25 02:01:07;;;;;;;;;;;10.20;99.90;;;;;;2617128;47;19954;-73
2023/10/25 02:03:37;;;;;;;;;;;10.20;99.90;;;;;;2616310;47;19969;-74
2023/10/25 02:06:14;;;;;;;;;;;10.20;99.90;;;;;;2616413;47;20496;-74
2023/10/25 02:08:47;;;;;;;;;;;10.20;99.90;;;;;;2617518;54;19945;-74
2023/10/25 02:11:19;;;;;;;;;;;10.20;99.90;;;;;;2616376;46;19934;-74
2023/10/25 02:13:49;;;;;;;;;;;10.20;99.90;;;;;;2618147;39;20619;-73
2023/10/25 02:16:19;;;;;;;;;;;10.20;99.90;;;;;;2617192;39;20006;-74
2023/10/25 02:18:48;;;;;;;;;;;10.20;99.90;;;;;;2616194;49;19939;-74
2023/10/25 02:21:18;;;;;;;;;;;10.20;99.90;;;;;;2616830;54;19969;-74
2023/10/25 02:23:50;;;;;;;;;;;10.20;99.90;;;;;;2617629;54;19950;-74
2023/10/25 02:26:20;;;;;;;;;;;10.20;99.90;;;;;;2617240;54;19950;-73
2023/10/25 02:28:50;;;;;;;;;;;10.20;99.90;;;;;;2617403;54;19954;-73
2023/10/25 02:31:19;;;;;;;;;;;10.20;99.90;;;;;;2617272;54;19945;-74
2023/10/25 02:33:49;;;;;;;;;;;10.20;99.90;;;;;;2616636;54;19939;-74
2023/10/25 02:36:19;;;;;;;;;;;10.20;99.90;;;;;;2616722;47;19954;-74
2023/10/25 02:38:51;;;;;;;;;;;10.20;99.90;;;;;;2617498;47;19938;-74
2023/10/25 02:41:22;;;;;;;;;;;10.20;99.90;;;;;;2618376;47;19950;-74
2023/10/25 02:43:53;;;;;;;;;;;10.40;99.90;;;;;;2617073;50;20038;-74
2023/10/25 02:46:23;;;;;;;;;;;10.10;99.90;;;;;;2617146;47;19941;-74
2023/10/25 02:48:53;;;;;;;;;;;10.10;99.90;;;;;;2617642;54;19939;-74
2023/10/25 02:51:23;;;;;;;;;;;10.10;99.90;;;;;;2618954;47;20445;-74
2023/10/25 02:53:56;;;;;;;;;;;10.10;99.90;;;;;;2617449;54;20453;-74
2023/10/25 02:56:25;;;;;;;;;;;10.00;99.90;;;;;;2617106;47;19945;-74
2023/10/25 02:58:55;;;;;;;;;;;10.10;99.90;;;;;;2617820;54;19939;-74
2023/10/25 03:01:25;;;;;;;;;;;10.00;99.90;;;;;;2617531;47;19953;-74
2023/10/25 03:03:55;;;;;;;;;;;10.00;99.90;;;;;;2615096;54;19946;-74
2023/10/25 03:06:25;;;;;;;;;;;10.00;99.90;;;;;;2617194;54;19946;-74
2023/10/25 03:08:57;;;;;;;;;;;10.10;99.90;;;;;;2617545;47;19938;-74
2023/10/25 03:11:27;;;;;;;;;;;10.10;99.90;;;;;;2617483;47;19935;-73
2023/10/25 03:13:57;;;;;;;;;;;10.10;99.90;;;;;;2616374;48;20026;-73
2023/10/25 03:16:26;;;;;;;;;;;10.00;99.90;;;;;;2616566;54;19942;-74
2023/10/25 03:18:56;;;;;;;;;;;10.00;99.90;;;;;;2616267;47;19947;-73
2023/10/25 03:21:26;;;;;;;;;;;10.10;99.90;;;;;;2616644;54;19954;-74
2023/10/25 03:23:59;;;;;;;;;;;10.10;99.90;;;;;;2616748;47;19938;-74
2023/10/25 03:26:28;;;;;;;;;;;10.00;99.90;;;;;;2616480;47;19980;-74
2023/10/25 03:28:58;;;;;;;;;;;10.00;99.90;;;;;;2616680;54;19954;-74
2023/10/25 03:31:27;;;;;;;;;;;10.00;99.90;;;;;;2617571;54;19962;-74
2023/10/25 03:33:57;;;;;;;;;;;10.00;99.90;;;;;;2616355;47;19953;-73
2023/10/25 03:36:27;;;;;;;;;;;10.10;99.90;;;;;;2616402;54;20513;-74
2023/10/25 03:38:59;;;;;;;;;;;10.10;99.90;;;;;;2617281;47;19942;-73
2023/10/25 03:41:29;;;;;;;;;;;10.10;99.90;;;;;;2616937;54;19942;-73
2023/10/25 03:43:58;;;;;;;;;;;10.10;99.90;;;;;;2615979;54;20436;-75
2023/10/25 03:46:28;;;;;;;;;;;10.20;99.90;;;;;;2616678;47;19947;-75
2023/10/25 03:48:58;;;;;;;;;;;10.10;99.90;;;;;;2616877;47;19946;-75
2023/10/25 03:51:28;;;;;;;;;;;10.10;99.90;;;;;;2616861;47;20716;-74
2023/10/25 03:54:00;;;;;;;;;;;10.10;99.90;;;;;;2616121;47;19938;-74
2023/10/25 03:56:29;;;;;;;;;;;10.10;99.90;;;;;;2616191;54;19938;-74
2023/10/25 03:58:59;;;;;;;;;;;10.10;99.90;;;;;;2616432;46;19966;-75
2023/10/25 04:01:29;;;;;;;;;;;10.00;99.90;;;;;;2616627;47;19951;-75
2023/10/25 04:03:58;;;;;;;;;;;10.00;99.90;;;;;;2614703;54;19939;-76
2023/10/25 04:06:28;;;;;;;;;;;10.00;99.90;;;;;;2614029;54;20472;-76
2023/10/25 04:09:01;;;;;;;;;;;10.10;99.90;;;;;;2616000;47;19962;-75
2023/10/25 04:11:30;;;;;;;;;;;10.10;99.90;;;;;;2616474;47;19939;-77
2023/10/25 04:14:00;;;;;;;;;;;10.10;99.90;;;;;;2615830;47;19946;-76
2023/10/25 04:16:30;;;;;;;;;;;10.10;99.90;;;;;;2615793;54;20050;-75
2023/10/25 04:19:00;;;;;;;;;;;10.40;99.90;;;;;;2615736;47;19943;-75
2023/10/25 04:21:29;;;;;;;;;;;10.00;99.90;;;;;;2617106;54;19947;-74
2023/10/25 04:24:02;;;;;;;;;;;10.00;99.90;;;;;;2616202;54;19938;-75
2023/10/25 04:26:31;;;;;;;;;;;10.20;99.90;;;;;;2616369;47;20449;-74
2023/10/25 04:29:01;;;;;;;;;;;9.90;99.90;;;;;;2618765;54;20484;-75
2023/10/25 04:31:30;;;;;;;;;;;9.90;99.90;;;;;;2624080;47;19995;-76
2023/10/25 04:34:01;;;;;;;;;;;10.20;99.90;;;;;;2622246;46;19994;-76
2023/10/25 04:36:31;;;;;;;;;;;10.00;99.90;;;;;;2618017;54;19942;-76
2023/10/25 04:39:03;;;;;;;;;;;10.00;99.90;;;;;;2618375;47;19946;-75
2023/10/25 04:41:33;;;;;;;;;;;8.30;99.90;;;;;;2618585;47;19938;-78
2023/10/25 04:44:03;;;;;;;;;;;10.10;99.90;;;;;;2618647;46;19953;-77
2023/10/25 04:46:33;;;;;;;;;;;10.10;99.90;;;;;;2597951;47;20077;-76
2023/10/25 04:49:03;;;;;;;;;;;10.20;99.90;;;;;;2600970;47;20076;-75
2023/10/25 04:51:32;;;;;;;;;;;10.20;99.90;;;;;;2600219;39;20407;-75
2023/10/25 04:54:05;;;;;;;;;;;10.20;99.90;;;;;;2599308;47;19953;-73
2023/10/25 04:56:34;;;;;;;;;;;10.30;99.90;;;;;;2599536;54;19958;-75
2023/10/25 04:59:04;;;;;;;;;;;10.30;99.90;;;;;;2599657;47;19946;-73
2023/10/25 05:01:34;;;;;;;;;;;10.30;99.90;;;;;;2600003;47;19953;-73
2023/10/25 05:04:04;;;;;;;;;;;10.30;99.90;;;;;;2599389;47;19954;-73
2023/10/25 05:06:34;;;;;;;;;;;10.30;99.90;;;;;;2599265;47;19950;-75
2023/10/25 05:09:07;;;;;;;;;;;10.30;99.90;;;;;;2600048;47;19950;-74
2023/10/25 05:11:40;;;;;;;;;;;11.50;99.90;;;;;;2600977;47;19954;-77
2023/10/25 05:14:10;;;;;;;;;;;10.30;99.90;;;;;;2600452;54;19961;-76
2023/10/25 05:16:40;;;;;;;;;;;10.30;99.90;;;;;;2599163;46;19977;-76
2023/10/25 05:19:10;;;;;;;;;;;10.30;99.90;;;;;;2600347;47;19946;-76
2023/10/25 05:21:42;;;;;;;;;;;10.30;99.90;;;;;;2600484;47;19985;-74
2023/10/25 05:24:14;;;;;;;;;;;10.40;99.90;;;;;;2600884;39;20108;-74
2023/10/25 05:26:44;;;;;;;;;;;10.40;99.90;;;;;;2599163;47;20673;-75
2023/10/25 05:29:15;;;;;;;;;;;10.40;99.90;;;;;;2599290;54;19953;-75
2023/10/25 05:31:45;;;;;;;;;;;10.40;99.90;;;;;;2600245;46;20483;-75
2023/10/25 05:34:15;;;;;;;;;;;10.40;99.90;;;;;;2599187;47;20072;-76
2023/10/25 05:36:45;;;;;;;;;;;8.90;99.90;;;;;;2599882;54;19950;-75
2023/10/25 05:39:18;;;;;;;;;;;10.40;99.90;;;;;;2600120;47;19950;-75
2023/10/25 05:41:48;;;;;;;;;;;10.40;99.90;;;;;;2601199;47;20451;-74
2023/10/25 05:44:18;;;;;;;;;;;10.30;99.90;;;;;;2599888;47;19977;-75
2023/10/25 05:46:48;;;;;;;;;;;10.40;99.90;;;;;;2601338;47;19951;-75
2023/10/25 05:49:20;;;;;;;;;;;10.30;99.90;;;;;;2601128;54;19954;-74
2023/10/25 05:51:50;;;;;;;;;;;10.30;99.90;;;;;;2603006;39;20358;-73
2023/10/25 05:54:23;;;;;;;;;;;10.30;99.90;;;;;;2599664;54;19951;-75
2023/10/25 05:56:53;;;;;;;;;;;10.20;99.90;;;;;;2601114;39;20463;-75
2023/10/25 05:59:23;;;;;;;;;;;9.10;99.90;;;;;;2600115;47;19961;-75
2023/10/25 06:01:53;;;;;;;;;;;9.40;99.90;;;;;;2599471;47;19950;-75
2023/10/25 06:04:24;;;;;;;;;;;10.20;99.90;;;;;;2602994;54;19951;-79
2023/10/25 06:06:54;;;;;;;;;;;10.20;99.90;;;;;;2608159;47;20062;-80
2023/10/25 06:09:27;;;;;;;;;;;10.10;99.90;;;;;;2608156;47;19957;-78
2023/10/25 06:11:57;;;;;;;;;;;10.10;99.90;;;;;;2608869;54;19961;-77
2023/10/25 06:14:27;;;;;;;;;;;10.10;99.90;;;;;;2610224;54;20018;-80
2023/10/25 06:16:57;;;;;;;;;;;10.10;99.90;;;;;;2607718;31;20497;-77
2023/10/25 06:19:27;;;;;;;;;;;10.00;99.90;;;;;;2605163;47;19946;-77
2023/10/25 06:21:57;;;;;;;;;;;10.00;99.90;;;;;;2609152;54;20002;-78
2023/10/25 06:24:29;;;;;;;;;;;10.00;99.90;;;;;;2607424;47;19953;-78
2023/10/25 06:26:59;;;;;;;;;;;10.00;99.90;;;;;;2609176;54;20029;-79
2023/10/25 06:29:28;;;;;;;;;;;10.00;99.90;;;;;;2611383;47;19957;-78
2023/10/25 06:31:58;;;;;;;;;;;10.10;99.90;;;;;;2611497;51;20030;-77
2023/10/25 06:34:28;;;;;;;;;;;9.90;99.90;;;;;;2602899;54;20019;-76
2023/10/25 06:36:58;;;;;;;;;;;9.80;99.90;;;;;;2606132;47;19954;-78
2023/10/25 06:39:31;;;;;;;;;;;9.70;99.90;;;;;;2605108;54;19953;-77
2023/10/25 06:42:01;;;;;;;;;;;9.40;99.90;;;;;;2608275;54;20033;-78
2023/10/25 06:44:31;;;;;;;;;;;10.10;99.90;;;;;;2609558;54;20903;-82
2023/10/25 06:47:02;;;;;;;;;;;9.20;99.90;;;;;;2614063;47;19954;-82
2023/10/25 06:49:33;;;;;;;;;;;9.20;99.90;;;;;;2613843;46;19951;-81
2023/10/25 06:52:03;;;;;;;;;;;9.20;99.90;;;;;;2614623;46;20021;-79
2023/10/25 06:54:36;;;;;;;;;;;9.20;99.90;;;;;;2611188;54;19955;-80
2023/10/25 06:57:06;;;;;;;;;;;9.20;99.90;;;;;;2610982;39;20812;-79
2023/10/25 06:59:36;;;;;;;;;;;9.20;99.90;;;;;;2612453;47;19946;-79
2023/10/25 07:02:10;;;;;;;;;;;9.00;99.90;;;;;;2611064;47;19957;-80
2023/10/25 07:04:41;;;;;;;;;;;9.30;99.90;;;;;;2612106;47;19948;-83
2023/10/25 07:07:11;;;;;;;;;;;9.20;99.90;;;;;;2613906;46;19942;-84
2023/10/25 07:09:44;;;;;;;;;;;9.30;99.90;;;;;;2612753;54;19950;-80
2023/10/25 07:12:14;;;;;;;;;;;9.30;99.90;;;;;;2613349;47;19931;-82
2023/10/25 07:14:44;;;;;;;;;;;9.40;99.90;;;;;;2612247;46;19953;-79
2023/10/25 07:17:14;;;;;;;;;;;9.50;99.90;;;;;;2610046;51;20027;-80
2023/10/25 07:19:46;;;;;;;;;;;9.50;99.90;;;;;;2613454;47;19962;-80
2023/10/25 07:22:16;;;;;;;;;;;9.50;99.90;;;;;;2613781;47;19939;-81
2023/10/25 07:24:48;;;;;;;;;;;9.50;99.90;;;;;;2614327;54;19998;-79
2023/10/25 07:27:18;;;;;;;;;;;9.50;99.90;;;;;;2613729;54;19938;-80
2023/10/25 07:29:47;;;;;;;;;;;9.50;99.90;;;;;;2612887;47;19966;-79
2023/10/25 07:32:17;;;;;;;;;;;9.60;99.90;;;;;;2610310;47;19954;-78
2023/10/25 07:34:47;;;;;;;;;;;9.50;99.90;;;;;;2602391;47;19951;-61
2023/10/25 07:37:17;;;;;;;;;;;9.60;99.90;;;;;;2603871;54;20003;-62
2023/10/25 07:39:49;;;;;;;;;;;9.70;99.90;;;;;;2601569;47;19946;-62
2023/10/25 07:42:19;;;;;;;;;;;9.80;99.90;;;;;;2598501;50;19962;-61
2023/10/25 07:44:49;;;;;;;;;;;9.90;99.90;;;;;;2598403;47;20466;-61
2023/10/25 07:47:20;;;;;;;;;;;10.00;99.90;;;;;;2598138;54;19951;-61
2023/10/25 07:49:50;;;;;;;;;;;10.10;99.90;;;;;;2598661;52;19946;-61
2023/10/25 07:52:20;;;;;;;;;;;10.10;99.90;;;;;;2598380;54;19955;-61
2023/10/25 07:54:52;;;;;;;;;;;10.20;99.90;;;;;;2598159;54;20681;-61
2023/10/25 07:57:22;;;;;;;;;;;10.30;99.90;;;;;;2598297;54;20522;-61
2023/10/25 07:59:55;;;;;;;;;;;10.30;99.90;;;;;;2599051;54;19946;-62
2023/10/25 08:02:25;;;;;;;;;;;10.40;99.90;;;;;;2598283;54;20385;-61
2023/10/25 08:04:55;;;;;;;;;;;10.40;99.90;;;;;;2597658;54;20001;-60
2023/10/25 08:07:26;;;;;;;;;;;10.50;99.90;;;;;;2599198;47;20821;-61
2023/10/25 08:09:58;;;;;;;;;;;10.70;99.90;;;;;;2599715;39;20033;-63
2023/10/25 08:12:28;;;;;;;;;;;10.60;99.90;;;;;;2598527;47;19954;-60
2023/10/25 08:14:58;;;;;;;;;;;10.70;99.90;;;;;;2598022;47;19954;-63
2023/10/25 08:17:27;;;;;;;;;;;10.80;99.90;;;;;;2598825;54;19977;-62
2023/10/25 08:19:58;;;;;;;;;;;10.80;99.90;;;;;;2599003;54;20326;-62
2023/10/25 08:22:27;;;;;;;;;;;10.90;99.90;;;;;;2600206;47;19935;-76
2023/10/25 08:24:59;;;;;;;;;;;11.00;99.90;;;;;;2598157;47;20031;-78
2023/10/25 08:27:29;;;;;;;;;;;11.00;99.90;;;;;;2600000;39;20361;-78
2023/10/25 08:32:27;;;;;;;;;;;11.10;99.90;;;;;;2610726;54;19986;-76
2023/10/25 08:34:57;;;;;;;;;;;11.10;99.90;;;;;;2611417;47;19951;-76
2023/10/25 08:37:27;;;;;;;;;;;11.10;99.90;;;;;;2614629;47;19957;-78
2023/10/25 08:40:00;;;;;;;;;;;11.10;99.90;;;;;;2616922;47;19954;-77
2023/10/25 08:42:29;;;;;;;;;;;11.20;99.90;;;;;;2614224;54;19951;-77
2023/10/25 08:44:59;;;;;;;;;;;11.30;99.90;;;;;;2615990;54;19950;-78
2023/10/25 08:47:29;;;;;;;;;;;11.30;99.90;;;;;;2615963;54;21131;-77
2023/10/25 08:49:59;;;;;;;;;;;11.20;99.90;;;;;;2616400;54;19935;-77
2023/10/25 08:52:29;;;;;;;;;;;11.30;99.90;;;;;;2616061;47;19965;-77
2023/10/25 08:55:01;;;;;;;;;;;11.30;99.90;;;;;;2615428;47;20013;-77
2023/10/25 08:57:32;;;;;;;;;;;11.30;99.90;;;;;;2615737;54;20050;-77
2023/10/25 09:00:02;;;;;;;;;;;11.30;99.90;;;;;;2615420;47;19954;-78
2023/10/25 09:02:37;;;;;;;;;;;11.30;99.90;;;;;;2615237;47;19977;-78
2023/10/25 09:05:08;;;;;;;;;;;11.40;99.90;;;;;;2616358;47;19951;-78
2023/10/25 09:07:39;;;;;;;;;;;11.40;99.90;;;;;;2614865;54;19947;-78
2023/10/25 09:10:15;;;;;;;;;;;11.40;99.90;;;;;;2607814;47;20541;-76
2023/10/25 09:12:45;;;;;;;;;;;11.60;99.90;;;;;;2608146;54;19935;-76
2023/10/25 09:15:30;;;;;;;;;;;11.60;99.90;;;;;;2607649;47;19942;-78
2023/10/25 09:18:00;;;;;;;;;;;11.60;99.90;;;;;;2609179;54;19958;-77
2023/10/25 09:20:30;;;;;;;;;;;11.70;99.90;;;;;;2608290;39;20416;-77
2023/10/25 09:23:11;;;;;;;;;;;11.70;99.90;;;;;;2608779;47;20071;-77
2023/10/25 09:25:44;;;;;;;;;;;11.70;99.90;;;;;;2608724;54;19947;-78
2023/10/25 09:28:16;;;;;;;;;;;11.70;99.90;;;;;;2610218;47;19950;-76
2023/10/25 09:30:46;;;;;;;;;;;11.70;99.90;;;;;;2611269;47;19977;-75
2023/10/25 09:33:15;;;;;;;;;;;11.80;99.90;;;;;;2615433;47;19946;-72
2023/10/25 09:35:46;;;;;;;;;;;11.80;99.90;;;;;;2615921;47;19947;-75
2023/10/25 09:38:18;;;;;;;;;;;11.80;99.90;;;;;;2618064;47;19947;-77
2023/10/25 09:40:51;;;;;;;;;;;11.80;99.90;;;;;;2618096;54;19947;-75
2023/10/25 09:43:24;;;;;;;;;;;11.80;99.90;;;;;;2619516;54;19939;-78
2023/10/25 09:45:54;;;;;;;;;;;11.90;99.90;;;;;;2619465;47;19954;-77
2023/10/25 09:48:24;;;;;;;;;;;11.80;99.90;;;;;;2621129;39;20369;-78
2023/10/25 09:51:15;;;;;;;;;;;11.80;99.90;;;;;;2621280;47;19950;-78
2023/10/25 09:54:00;;;;;;;;;;;11.70;99.90;;;;;;2621125;54;19946;-77
2023/10/25 09:56:33;;;;;;;;;;;11.70;99.90;;;;;;2619576;47;19938;-76
2023/10/25 09:59:03;;;;;;;;;;;11.70;99.90;;;;;;2619137;54;19938;-77
2023/10/25 10:01:33;;;;;;;;;;;11.70;99.90;;;;;;2623154;47;19984;-80
2023/10/25 10:04:12;;;;;;;;;;;11.70;99.90;;;;;;2630790;47;19923;-78
2023/10/25 10:06:46;;;;;;;;;;;11.70;99.90;;;;;;2630163;54;20002;-81
2023/10/25 10:09:21;;;;;;;;;;;11.70;99.90;;;;;;2628506;47;19966;-79
2023/10/25 10:11:55;;;;;;;;;;;11.70;99.90;;;;;;2624667;54;19931;-80
2023/10/25 10:14:29;;;;;;;;;;;11.70;99.90;;;;;;2624251;47;19946;-77
2023/10/25 10:17:00;;;;;;;;;;;11.70;99.90;;;;;;2623734;46;19998;-76
2023/10/25 10:19:32;;;;;;;;;;;11.70;99.90;;;;;;2624273;54;19969;-73
2023/10/25 10:22:06;;;;;;;;;;;11.70;99.90;;;;;;2616382;47;20038;-75
2023/10/25 10:24:42;;;;;;;;;;;12.00;99.90;;;;;;2617169;54;19946;-75
2023/10/25 10:27:16;;;;;;;;;;;11.60;99.90;;;;;;2621631;47;20338;-75
2023/10/25 10:29:46;;;;;;;;;;;11.70;99.90;;;;;;2619322;54;19947;-76
2023/10/25 10:32:17;;;;;;;;;;;11.70;99.90;;;;;;2619020;47;19934;-76
2023/10/25 10:34:44;;;;;;;;;;;11.70;99.90;;;;;;2618283;46;19947;-76
2023/10/25 10:37:16;;;;;;;;;;;11.70;99.90;;;;;;2617676;54;19981;-76
2023/10/25 10:40:18;;;;;;;;;;;11.80;99.90;;;;;;2618370;47;19947;-76
2023/10/25 10:42:50;;;;;;;;;;;11.80;99.90;;;;;;2616576;54;19945;-77
2023/10/25 10:45:20;;;;;;;;;;;11.80;99.90;;;;;;2617341;39;20352;-75
2023/10/25 10:47:53;;;;;;;;;;;11.80;99.90;;;;;;2617639;47;19945;-76
2023/10/25 10:50:24;;;;;;;;;;;11.80;99.90;;;;;;2616514;47;19943;-75
2023/10/25 10:52:54;;;;;;;;;;;11.90;99.90;;;;;;2618830;54;19946;-75
2023/10/25 10:55:25;;;;;;;;;;;11.80;99.90;;;;;;2617307;47;19946;-76
2023/10/25 10:57:57;;;;;;;;;;;11.80;99.90;;;;;;2617845;47;19957;-64
2023/10/25 11:00:37;;;;;;;;;;;11.80;99.90;;;;;;2615626;54;19947;-63
2023/10/25 11:03:07;;;;;;;;;;;11.80;99.90;;;;;;2615172;54;19934;-65
2023/10/25 11:05:39;;;;;;;;;;;11.80;99.90;;;;;;2614579;47;19954;-64
2023/10/25 11:08:13;;;;;;;;;;;11.80;99.90;;;;;;2615480;54;19965;-65
2023/10/25 11:10:44;;;;;;;;;;;11.80;99.90;;;;;;2615281;39;20401;-64
2023/10/25 11:13:17;;;;;;;;;;;11.90;99.90;;;;;;2615376;39;20326;-65
2023/10/25 11:15:46;;;;;;;;;;;11.90;99.90;;;;;;2614726;54;19969;-64
2023/10/25 11:18:16;;;;;;;;;;;11.90;99.90;;;;;;2614472;54;19946;-63
2023/10/25 11:20:46;;;;;;;;;;;12.00;99.90;;;;;;2615274;54;19947;-63
2023/10/25 11:23:16;;;;;;;;;;;12.00;99.90;;;;;;2615114;54;19994;-63
2023/10/25 11:25:47;;;;;;;;;;;12.00;99.90;;;;;;2614174;54;19977;-64
2023/10/25 11:28:21;;;;;;;;;;;12.00;99.90;;;;;;2614513;54;20042;-64
2023/10/25 11:30:52;;;;;;;;;;;12.00;99.90;;;;;;2615051;47;19946;-65
2023/10/25 11:33:21;;;;;;;;;;;12.00;99.90;;;;;;2614248;47;20462;-64
2023/10/25 11:35:52;;;;;;;;;;;12.00;99.90;;;;;;2614173;47;19946;-63
2023/10/25 11:38:22;;;;;;;;;;;12.00;99.90;;;;;;2615264;54;19962;-64
2023/10/25 11:40:51;;;;;;;;;;;12.10;99.90;;;;;;2619213;54;19977;-77
2023/10/25 11:43:24;;;;;;;;;;;12.00;99.90;;;;;;2616111;47;20037;-78
2023/10/25 11:45:53;;;;;;;;;;;12.00;99.90;;;;;;2617423;47;19946;-76
2023/10/25 11:48:23;;;;;;;;;;;12.00;99.90;;;;;;2615558;54;19950;-76
2023/10/25 11:50:53;;;;;;;;;;;12.00;99.90;;;;;;2616768;47;19939;-75
2023/10/25 11:53:26;;;;;;;;;;;12.00;99.90;;;;;;2617104;47;19946;-76
2023/10/25 11:55:58;;;;;;;;;;;11.90;99.90;;;;;;2617890;47;20069;-77
2023/10/25 11:58:34;;;;;;;;;;;11.90;99.90;;;;;;2616255;54;20066;-75
2023/10/25 12:01:04;;;;;;;;;;;12.00;99.90;;;;;;2616378;54;19954;-76
2023/10/25 12:03:40;;;;;;;;;;;12.00;99.90;;;;;;2614081;47;19950;-77
2023/10/25 12:06:11;;;;;;;;;;;12.20;99.90;;;;;;2614396;52;19966;-76
2023/10/25 12:08:41;;;;;;;;;;;12.00;99.90;;;;;;2614827;54;19951;-75
2023/10/25 12:11:11;;;;;;;;;;;12.00;99.90;;;;;;2613800;47;19953;-77
2023/10/25 12:13:44;;;;;;;;;;;12.00;99.90;;;;;;2594887;47;21586;-76
2023/10/25 12:16:14;;;;;;;;;;;12.00;99.90;;;;;;2597942;47;19951;-75
2023/10/25 12:18:44;;;;;;;;;;;12.00;99.90;;;;;;2597922;54;22245;-76
2023/10/25 12:21:14;;;;;;;;;;;12.00;99.90;;;;;;2602130;39;20523;-76
2023/10/25 12:23:43;;;;;;;;;;;12.00;99.90;;;;;;2600418;54;20441;-76
2023/10/25 12:26:13;;;;;;;;;;;12.10;99.90;;;;;;2602040;39;20397;-76
2023/10/25 12:28:45;;;;;;;;;;;12.10;99.90;;;;;;2600873;54;19968;-77
2023/10/25 12:31:15;;;;;;;;;;;12.00;99.90;;;;;;2602941;54;19946;-77
2023/10/25 12:33:45;;;;;;;;;;;12.00;99.90;;;;;;2601856;54;19955;-78
2023/10/25 12:36:14;;;;;;;;;;;12.00;99.90;;;;;;2604523;47;19946;-78
2023/10/25 12:38:45;;;;;;;;;;;12.00;99.90;;;;;;2605277;54;19951;-79
2023/10/25 12:41:14;;;;;;;;;;;12.00;99.90;;;;;;2604736;39;20370;-78
2023/10/25 12:43:47;;;;;;;;;;;12.00;99.90;;;;;;2601453;47;19950;-77
2023/10/25 12:46:17;;;;;;;;;;;12.10;99.90;;;;;;2599131;54;20019;-78
2023/10/25 12:48:47;;;;;;;;;;;12.10;99.90;;;;;;2601341;47;20002;-80
2023/10/25 12:51:16;;;;;;;;;;;12.10;99.90;;;;;;2601821;54;19953;-77
2023/10/25 12:53:46;;;;;;;;;;;12.10;99.90;;;;;;2599741;54;19950;-78
2023/10/25 12:56:16;;;;;;;;;;;12.10;99.90;;;;;;2599135;54;21370;-75
2023/10/25 12:58:48;;;;;;;;;;;12.10;99.90;;;;;;2601454;54;19946;-75
2023/10/25 13:01:19;;;;;;;;;;;12.20;99.90;;;;;;2601255;47;19950;-77
2023/10/25 13:03:49;;;;;;;;;;;11.70;99.90;;;;;;2599974;46;19973;-76
2023/10/25 13:06:19;;;;;;;;;;;12.20;99.90;;;;;;2599220;54;20451;-76
2023/10/25 13:08:48;;;;;;;;;;;12.20;99.90;;;;;;2599971;47;19973;-77
2023/10/25 13:11:18;;;;;;;;;;;12.20;99.90;;;;;;2598959;49;19985;-77
2023/10/25 13:13:50;;;;;;;;;;;12.20;99.90;;;;;;2599512;47;20042;-76
2023/10/25 13:16:20;;;;;;;;;;;12.20;99.90;;;;;;2600011;47;22358;-76
2023/10/25 13:18:50;;;;;;;;;;;12.20;99.90;;;;;;2600113;54;19947;-77
2023/10/25 13:21:20;;;;;;;;;;;12.30;99.90;;;;;;2600165;54;19947;-77
2023/10/25 13:23:50;;;;;;;;;;;12.20;99.90;;;;;;2598733;54;19958;-76
2023/10/25 13:26:21;;;;;;;;;;;12.20;99.90;;;;;;2600229;47;20002;-76
2023/10/25 13:28:54;;;;;;;;;;;11.80;99.90;;;;;;2598533;54;19966;-76
2023/10/25 13:31:24;;;;;;;;;;;12.20;99.90;;;;;;2601084;47;19946;-76
2023/10/25 13:33:54;;;;;;;;;;;12.30;99.90;;;;;;2600258;54;20006;-78
2023/10/25 13:36:23;;;;;;;;;;;12.30;99.90;;;;;;2600277;47;19947;-77
2023/10/25 13:38:53;;;;;;;;;;;12.30;99.90;;;;;;2599591;46;19950;-76
2023/10/25 13:41:23;;;;;;;;;;;12.40;99.90;;;;;;2600491;47;19957;-79
2023/10/25 13:43:55;;;;;;;;;;;12.40;99.90;;;;;;2598832;47;20535;-78
2023/10/25 13:46:25;;;;;;;;;;;12.40;99.90;;;;;;2599918;47;19946;-76
2023/10/25 13:48:54;;;;;;;;;;;12.40;99.90;;;;;;2600123;54;19954;-77
2023/10/25 13:51:24;;;;;;;;;;;12.40;99.90;;;;;;2598367;54;20631;-78
2023/10/25 13:53:54;;;;;;;;;;;12.60;99.90;;;;;;2599367;54;19961;-76
2023/10/25 13:56:23;;;;;;;;;;;12.60;99.90;;;;;;2599859;47;19957;-76
2023/10/25 13:58:56;;;;;;;;;;;12.50;99.90;;;;;;2599509;47;19974;-77
2023/10/25 14:01:25;;;;;;;;;;;12.50;99.90;;;;;;2601545;54;19957;-77
2023/10/25 14:03:55;;;;;;;;;;;11.50;99.90;;;;;;2602614;49;19958;-76
2023/10/25 14:06:25;;;;;;;;;;;12.60;99.90;;;;;;2603800;54;20452;-76
2023/10/25 14:08:55;;;;;;;;;;;12.60;99.90;;;;;;2603411;47;19954;-76
2023/10/25 14:11:25;;;;;;;;;;;12.60;99.90;;;;;;2603249;54;19997;-75
2023/10/25 14:13:57;;;;;;;;;;;12.70;99.90;;;;;;2603515;54;19957;-76
2023/10/25 14:16:27;;;;;;;;;;;12.60;99.90;;;;;;2602016;47;19995;-75
2023/10/25 14:18:57;;;;;;;;;;;12.70;99.90;;;;;;2600855;51;19949;-77
2023/10/25 14:21:28;;;;;;;;;;;12.70;99.90;;;;;;2601650;54;19947;-77
2023/10/25 14:23:57;;;;;;;;;;;12.70;99.90;;;;;;2599281;39;20388;-77
2023/10/25 14:26:27;;;;;;;;;;;12.80;99.90;;;;;;2599550;47;19953;-76
2023/10/25 14:28:59;;;;;;;;;;;12.80;99.90;;;;;;2599101;47;20033;-77
2023/10/25 14:31:30;;;;;;;;;;;12.80;99.90;;;;;;2600405;47;19950;-75
2023/10/25 14:34:01;;;;;;;;;;;12.80;99.90;;;;;;2598412;54;19946;-76
2023/10/25 14:36:31;;;;;;;;;;;12.80;99.90;;;;;;2598480;47;19951;-74
2023/10/25 14:39:01;;;;;;;;;;;12.80;99.90;;;;;;2599450;39;20520;-75
2023/10/25 14:41:32;;;;;;;;;;;12.80;99.90;;;;;;2598975;54;19950;-76